createdAt,value
2022-09-26T06:09:13.052Z,14.88
2022-09-26T06:11:40.323Z,14.51
2022-09-26T06:14:08.201Z,14.67
2022-09-26T06:16:35.545Z,14.64
2022-09-26T06:19:02.889Z,14.16
2022-09-26T06:21:30.144Z,14.51
2022-09-26T06:23:57.464Z,14.33
2022-09-26T06:26:27.717Z,14.40
2022-09-26T06:29:01.784Z,14.54
2022-09-26T06:31:29.983Z,14.61
2022-09-26T06:33:58.508Z,14.53
2022-09-26T06:36:26.069Z,14.68
2022-09-26T06:38:55.926Z,14.70
2022-09-26T06:41:23.388Z,14.93
2022-09-26T06:43:51.036Z,14.73
2022-09-26T06:46:18.464Z,14.80
2022-09-26T06:48:46.641Z,14.90
2022-09-26T06:51:14.612Z,15.03
2022-09-26T06:53:44.599Z,14.78
2022-09-26T06:56:13.341Z,15.06
2022-09-26T06:58:41.767Z,14.92
2022-09-26T07:01:10.125Z,15.02
2022-09-26T07:03:40.562Z,15.02
2022-09-26T07:06:11.789Z,14.98
2022-09-26T07:09:01.007Z,15.15
2022-09-26T07:11:38.377Z,14.95
2022-09-26T07:14:16.795Z,14.89
2022-09-26T07:16:51.918Z,14.87
2022-09-26T07:19:19.503Z,14.97
2022-09-26T07:21:49.103Z,15.35
2022-09-26T07:24:16.533Z,15.17
2022-09-26T07:26:44.176Z,15.27
2022-09-26T07:29:12.382Z,15.30
2022-09-26T07:31:39.815Z,15.52
2022-09-26T07:34:08.671Z,15.14
2022-09-26T07:36:36.209Z,15.37
2022-09-26T07:39:03.552Z,15.42
2022-09-26T07:41:31.071Z,15.37
2022-09-26T07:47:05.093Z,15.42
2022-09-26T07:49:51.083Z,15.21
2022-09-26T07:52:23.095Z,15.40
2022-09-26T07:54:50.651Z,15.04
2022-09-26T07:57:19.448Z,15.02
2022-09-26T07:59:49.658Z,14.91
2022-09-26T08:02:34.059Z,15.11
2022-09-26T08:05:03.839Z,15.24
2022-09-26T08:07:33.600Z,15.10
2022-09-26T08:10:03.034Z,15.13
2022-09-26T08:12:37.937Z,15.38
2022-09-26T08:15:08.143Z,15.56
2022-09-26T08:17:35.725Z,15.40
2022-09-26T08:20:04.220Z,15.54
2022-09-26T08:22:31.554Z,15.60
2022-09-26T08:24:58.993Z,15.56
2022-09-26T08:27:27.049Z,15.68
2022-09-26T08:29:55.161Z,16.03
2022-09-26T08:32:22.656Z,15.93
2022-09-26T08:34:52.520Z,16.15
2022-09-26T08:37:21.849Z,16.30
2022-09-26T08:39:49.156Z,16.32
2022-09-26T08:42:46.050Z,16.59
2022-09-26T08:46:12.030Z,16.55
2022-09-26T08:49:44.109Z,16.65
2022-09-26T08:53:05.708Z,16.84
2022-09-26T08:55:45.877Z,16.52
2022-09-26T08:58:28.943Z,15.99
2022-09-26T09:01:04.280Z,15.89
2022-09-26T09:03:49.433Z,15.95
2022-09-26T09:06:19.913Z,15.88
2022-09-26T09:08:56.486Z,16.29
2022-09-26T09:12:32.311Z,16.77
2022-09-26T09:15:34.078Z,16.44
2022-09-26T09:18:34.950Z,16.89
2022-09-26T09:21:42.151Z,16.38
2022-09-26T09:25:04.905Z,16.48
2022-09-26T09:28:27.508Z,16.67
2022-09-26T09:31:08.941Z,16.87
2022-09-26T09:33:48.181Z,17.20
2022-09-26T09:36:53.040Z,17.51
2022-09-26T09:39:44.826Z,17.41
2022-09-26T09:42:53.057Z,18.05
2022-09-26T09:45:50.273Z,18.23
2022-09-26T09:48:18.796Z,18.59
2022-09-26T09:51:02.402Z,18.52
2022-09-26T09:54:18.401Z,18.37
2022-09-26T09:57:24.161Z,18.21
2022-09-26T10:00:23.107Z,17.93
2022-09-26T10:03:29.615Z,18.06
2022-09-26T10:06:01.653Z,17.61
2022-09-26T10:08:37.285Z,18.04
2022-09-26T10:11:41.878Z,18.09
2022-09-26T10:14:27.907Z,18.17
2022-09-26T10:17:11.009Z,17.94
2022-09-26T10:19:44.162Z,17.32
2022-09-26T10:22:37.154Z,17.51
2022-09-26T10:25:17.652Z,17.70
2022-09-26T10:27:56.345Z,17.29
2022-09-26T10:30:33.162Z,17.32
2022-09-26T10:33:04.056Z,17.09
2022-09-26T10:35:46.227Z,16.93
2022-09-26T10:38:27.334Z,16.80
2022-09-26T10:41:02.087Z,16.86
2022-09-26T10:43:40.925Z,17.10
2022-09-26T10:46:21.383Z,17.35
2022-09-26T10:49:02.873Z,17.40
2022-09-26T10:51:47.277Z,17.34
2022-09-26T10:54:24.459Z,17.60
2022-09-26T10:56:59.470Z,17.26
2022-09-26T10:59:34.624Z,17.83
2022-09-26T11:02:03.707Z,17.53
2022-09-26T11:04:53.525Z,17.44
2022-09-26T11:07:38.435Z,17.41
2022-09-26T11:10:22.705Z,17.65
2022-09-26T11:13:27.712Z,17.78
2022-09-26T11:16:12.784Z,17.41
2022-09-26T11:19:22.215Z,17.74
2022-09-26T11:22:38.332Z,17.45
2022-09-26T11:25:35.749Z,17.55
2022-09-26T11:28:24.861Z,17.52
2022-09-26T11:31:01.700Z,17.55
2022-09-26T11:33:30.271Z,17.80
2022-09-26T11:37:22.112Z,18.13
2022-09-26T11:40:22.595Z,18.52
2022-09-26T11:43:50.553Z,18.64
2022-09-26T11:47:13.903Z,18.74
2022-09-26T11:50:44.748Z,18.82
2022-09-26T11:54:24.771Z,19.10
2022-09-26T11:57:37.633Z,19.11
2022-09-26T12:00:30.908Z,19.64
2022-09-26T12:04:12.979Z,19.71
2022-09-26T12:07:22.350Z,19.34
2022-09-26T12:10:54.029Z,18.75
2022-09-26T12:13:57.394Z,18.80
2022-09-26T12:16:58.724Z,18.20
2022-09-26T12:19:48.207Z,18.45
2022-09-26T12:23:07.283Z,18.39
2022-09-26T12:25:57.140Z,18.53
2022-09-26T12:29:14.286Z,18.59
2022-09-26T12:32:37.653Z,18.67
2022-09-26T12:35:46.044Z,18.47
2022-09-26T12:38:42.451Z,18.53
2022-09-26T12:41:51.751Z,17.88
2022-09-26T12:45:29.229Z,18.17
2022-09-26T12:48:37.381Z,18.32
2022-09-26T12:51:42.811Z,18.23
2022-09-26T12:55:07.976Z,17.92
2022-09-26T12:58:37.063Z,18.02
2022-09-26T13:01:46.814Z,17.82
2022-09-26T13:04:48.940Z,17.88
2022-09-26T13:08:02.141Z,17.90
2022-09-26T13:11:23.785Z,18.00
2022-09-26T13:14:34.997Z,17.77
2022-09-26T13:17:38.391Z,17.94
2022-09-26T13:20:36.721Z,17.79
2022-09-26T13:23:37.766Z,17.95
2022-09-26T13:26:45.215Z,18.33
2022-09-26T13:29:37.099Z,18.35
2022-09-26T13:32:35.811Z,18.33
2022-09-26T13:35:27.879Z,18.44
2022-09-26T13:38:23.128Z,18.24
2022-09-26T13:41:44.619Z,18.26
2022-09-26T13:45:11.283Z,18.15
2022-09-26T13:48:13.765Z,18.67
2022-09-26T13:50:47.661Z,18.44
2022-09-26T13:54:17.563Z,18.18
2022-09-26T13:56:50.512Z,18.23
2022-09-26T13:59:21.165Z,18.28
2022-09-26T14:02:23.618Z,18.04
2022-09-26T14:05:03.064Z,18.21
2022-09-26T14:08:00.747Z,18.38
2022-09-26T14:10:30.500Z,18.11
2022-09-26T14:13:03.311Z,18.27
2022-09-26T14:15:48.972Z,18.15
2022-09-26T14:19:11.605Z,18.06
2022-09-26T14:22:18.765Z,18.40
2022-09-26T14:24:53.199Z,18.37
2022-09-26T14:27:39.487Z,18.20
2022-09-26T14:30:30.464Z,17.91
2022-09-26T14:33:10.362Z,18.25
2022-09-26T14:35:43.144Z,18.47
2022-09-26T14:38:20.339Z,18.27
2022-09-26T14:40:58.141Z,18.21
2022-09-26T14:43:31.061Z,18.23
2022-09-26T14:46:19.093Z,18.27
2022-09-26T14:48:46.942Z,18.17
2022-09-26T14:51:18.544Z,18.14
2022-09-26T14:53:48.423Z,18.17
2022-09-26T14:56:27.522Z,18.17
2022-09-26T14:59:25.995Z,18.16
2022-09-26T15:02:14.050Z,18.23
2022-09-26T15:04:47.228Z,18.03
2022-09-26T15:07:27.177Z,18.11
2022-09-26T15:10:23.535Z,18.00
2022-09-26T15:13:18.372Z,17.76
2022-09-26T15:16:32.400Z,18.06
2022-09-26T15:19:14.875Z,17.82
2022-09-26T15:22:25.470Z,17.90
2022-09-26T15:25:24.151Z,17.85
2022-09-26T15:27:55.928Z,17.98
2022-09-26T15:30:41.785Z,17.94
2022-09-26T15:33:19.616Z,18.10
2022-09-26T15:35:54.727Z,18.06
2022-09-26T15:38:25.751Z,18.02
2022-09-26T15:41:04.124Z,17.95
2022-09-26T15:43:35.585Z,17.94
2022-09-26T15:46:08.984Z,18.01
2022-09-26T15:48:43.928Z,17.87
2022-09-26T15:51:36.048Z,18.12
2022-09-26T15:54:17.812Z,18.08
2022-09-26T15:56:49.588Z,17.88
2022-09-26T15:59:41.378Z,17.95
2022-09-26T16:02:32.479Z,17.93
2022-09-26T16:05:00.671Z,17.97
2022-09-26T16:07:30.892Z,17.79
2022-09-26T16:09:59.150Z,17.73
2022-09-26T16:12:30.256Z,17.82
2022-09-26T16:15:13.485Z,17.77
2022-09-26T16:17:50.386Z,17.73
2022-09-26T16:20:17.459Z,17.78
2022-09-26T16:23:01.755Z,17.84
2022-09-26T16:25:56.283Z,17.68
2022-09-26T16:28:46.289Z,17.80
2022-09-26T16:31:36.731Z,17.72
2022-09-26T16:34:19.248Z,17.58
2022-09-26T16:36:47.728Z,17.58
2022-09-26T16:39:29.108Z,17.55
2022-09-26T16:42:16.753Z,17.53
2022-09-26T16:44:57.374Z,17.35
2022-09-26T16:47:45.392Z,17.50
2022-09-26T16:50:33.227Z,17.29
2022-09-26T16:53:06.329Z,17.56
2022-09-26T16:55:36.385Z,17.44
2022-09-26T16:58:05.918Z,17.57
2022-09-26T17:00:53.735Z,17.44
2022-09-26T17:03:32.199Z,17.37
2022-09-26T17:06:00.574Z,17.34
2022-09-26T17:08:28.695Z,17.38
2022-09-26T17:11:03.660Z,17.08
2022-09-26T17:13:35.315Z,17.40
2022-09-26T17:16:03.780Z,17.44
2022-09-26T17:18:33.134Z,17.33
2022-09-26T17:21:00.799Z,17.13
2022-09-26T17:23:40.947Z,17.28
2022-09-26T17:26:23.888Z,17.22
2022-09-26T17:28:54.574Z,17.21
2022-09-26T17:31:22.074Z,17.13
2022-09-26T17:33:53.533Z,17.18
2022-09-26T17:36:28.452Z,17.39
2022-09-26T17:38:59.395Z,17.02
2022-09-26T17:41:28.801Z,17.26
2022-09-26T17:44:00.150Z,17.36
2022-09-26T17:46:29.314Z,17.14
2022-09-26T17:48:56.945Z,17.23
2022-09-26T17:51:24.335Z,17.15
2022-09-26T17:53:52.554Z,17.11
2022-09-26T17:56:20.849Z,17.16
2022-09-26T17:58:51.883Z,17.15
2022-09-26T18:01:33.498Z,17.21
2022-09-26T18:04:08.319Z,17.17
2022-09-26T18:06:36.869Z,16.98
2022-09-26T18:09:07.335Z,16.99
2022-09-26T18:11:37.197Z,16.99
2022-09-26T18:14:08.044Z,17.15
2022-09-26T18:16:35.543Z,16.78
2022-09-26T18:19:07.470Z,17.03
2022-09-26T18:21:36.124Z,17.00
2022-09-26T18:24:09.323Z,16.93
2022-09-26T18:26:47.199Z,16.91
2022-09-26T18:29:40.472Z,16.75
2022-09-26T18:32:37.540Z,16.89
2022-09-26T18:35:13.921Z,16.73
2022-09-26T18:37:41.265Z,16.84
2022-09-26T18:40:19.172Z,17.08
2022-09-26T18:42:46.650Z,16.99
2022-09-26T18:45:25.633Z,17.05
2022-09-26T18:47:53.392Z,16.87
2022-09-26T18:50:39.204Z,16.45
2022-09-26T18:53:23.724Z,16.65
2022-09-26T18:56:09.477Z,16.49
2022-09-26T18:58:37.082Z,16.17
2022-09-26T19:01:34.280Z,16.15
2022-09-26T19:04:12.083Z,15.91
2022-09-26T19:06:44.228Z,15.94
2022-09-26T19:09:20.869Z,16.14
2022-09-26T19:11:48.900Z,16.17
2022-09-26T19:14:26.158Z,16.08
2022-09-26T19:16:54.038Z,16.23
2022-09-26T19:19:22.904Z,16.15
2022-09-26T19:22:16.816Z,16.41
2022-09-26T19:25:00.039Z,16.20
2022-09-26T19:27:42.213Z,16.28
2022-09-26T19:30:21.353Z,16.12
2022-09-26T19:32:55.623Z,16.03
2022-09-26T19:35:34.100Z,16.07
2022-09-26T19:38:14.548Z,15.89
2022-09-26T19:40:46.210Z,15.91
2022-09-26T19:43:16.699Z,16.15
2022-09-26T19:45:45.130Z,15.92
2022-09-26T19:48:20.886Z,15.84
2022-09-26T19:50:49.041Z,15.45
2022-09-26T19:53:21.596Z,15.43
2022-09-26T19:55:53.480Z,15.18
2022-09-26T19:58:27.891Z,15.24
2022-09-26T20:01:06.858Z,15.26
2022-09-26T20:03:42.778Z,15.42
2022-09-26T20:06:24.805Z,15.55
2022-09-26T20:09:01.710Z,15.20
2022-09-26T20:11:29.319Z,15.41
2022-09-26T20:14:15.656Z,15.16
2022-09-26T20:16:43.285Z,15.28
2022-09-26T20:19:35.876Z,15.30
2022-09-26T20:22:11.553Z,15.33
2022-09-26T20:24:39.738Z,15.22
2022-09-26T20:27:10.663Z,15.12
2022-09-26T20:29:56.696Z,15.29
2022-09-26T20:32:24.037Z,14.86
2022-09-26T20:34:51.312Z,15.00
2022-09-26T20:37:24.454Z,14.87
2022-09-26T20:39:52.527Z,14.92
2022-09-26T20:42:19.915Z,15.13
2022-09-26T20:44:50.132Z,15.23
2022-09-26T20:47:21.112Z,15.22
2022-09-26T20:49:59.240Z,15.16
2022-09-26T20:52:30.292Z,15.32
2022-09-26T20:54:58.349Z,15.08
2022-09-26T20:57:26.103Z,15.29
2022-09-26T20:59:53.367Z,15.25
2022-09-26T21:02:32.651Z,15.26
2022-09-26T21:05:01.760Z,15.47
2022-09-26T21:07:32.602Z,15.45
2022-09-26T21:09:59.799Z,15.12
2022-09-26T21:12:27.123Z,15.32
2022-09-26T21:14:54.403Z,15.37
2022-09-26T21:17:28.633Z,14.82
2022-09-26T21:19:56.342Z,15.02
2022-09-26T21:22:27.184Z,14.43
2022-09-26T21:24:55.328Z,15.06
2022-09-26T21:27:24.407Z,14.98
2022-09-26T21:29:51.829Z,15.11
2022-09-26T21:32:22.767Z,15.18
2022-09-26T21:35:04.760Z,15.10
2022-09-26T21:37:32.181Z,14.77
2022-09-26T21:39:59.558Z,14.85
2022-09-26T21:42:26.945Z,14.69
2022-09-26T21:45:04.272Z,14.69
2022-09-26T21:47:32.108Z,14.87
2022-09-26T21:49:59.539Z,14.58
2022-09-26T21:52:42.200Z,14.70
2022-09-26T21:55:24.422Z,15.04
2022-09-26T21:57:54.693Z,15.04
2022-09-26T22:00:21.991Z,14.95
2022-09-26T22:02:49.527Z,15.04
2022-09-26T22:05:17.563Z,14.66
2022-09-26T22:07:45.075Z,14.84
2022-09-26T22:10:12.372Z,14.61
2022-09-26T22:12:39.722Z,14.86
2022-09-26T22:15:08.632Z,14.68
2022-09-26T22:17:36.045Z,14.49
2022-09-26T22:20:04.187Z,14.39
2022-09-26T22:22:31.870Z,14.71
2022-09-26T22:25:03.302Z,14.42
2022-09-26T22:27:34.400Z,14.38
2022-09-26T22:30:02.653Z,14.26
2022-09-26T22:32:30.097Z,14.49
2022-09-26T22:34:57.495Z,14.29
2022-09-26T22:37:25.026Z,14.35
2022-09-26T22:39:54.131Z,14.39
2022-09-26T22:42:21.527Z,14.12
2022-09-26T22:44:48.928Z,14.37
2022-09-26T22:47:16.242Z,14.25
2022-09-26T22:49:43.571Z,14.59
2022-09-26T22:52:11.456Z,14.72
2022-09-26T22:54:41.089Z,14.52
2022-09-26T22:57:08.506Z,14.56
2022-09-26T22:59:35.776Z,14.12
2022-09-26T23:02:03.198Z,14.24
2022-09-26T23:04:46.967Z,14.42
2022-09-26T23:07:20.609Z,14.58
2022-09-26T23:09:49.441Z,14.43
2022-09-26T23:12:16.915Z,14.28
2022-09-26T23:14:44.571Z,14.17
2022-09-26T23:17:12.029Z,14.18
2022-09-26T23:19:40.108Z,14.30
2022-09-26T23:22:07.380Z,14.19
2022-09-26T23:24:34.649Z,14.19
2022-09-26T23:27:02.021Z,14.41
2022-09-26T23:29:29.357Z,14.24
2022-09-26T23:31:56.681Z,14.50
2022-09-26T23:34:24.098Z,14.52
2022-09-26T23:36:51.440Z,14.57
2022-09-26T23:39:18.755Z,14.56
2022-09-26T23:41:46.053Z,14.66
2022-09-26T23:44:13.549Z,14.72
2022-09-26T23:46:40.866Z,14.57
2022-09-26T23:49:08.268Z,14.48
2022-09-26T23:51:35.645Z,14.60
2022-09-26T23:54:02.917Z,14.78
2022-09-26T23:56:30.185Z,14.76
2022-09-26T23:58:57.705Z,14.59
